Home > Products > Valid Products > TAF

000
FTUS45 KPIH 010500
TAFPIH
TAF
KPIH 010520Z 0106/0206 VRB04KT P6SM FEW100 SCT140 SCT180
     FM011400 04006KT P6SM FEW100 FEW140 SCT180
     FM011700 VRB04KT P6SM VCTS FEW100CB SCT140 SCT180
     FM020300 VRB04KT P6SM VCSH FEW100 SCT140 SCT180=



000
FTUS45 KPIH 010500
TAFBYI
TAF
KBYI 010520Z 0106/0206 VRB04KT P6SM FEW100 SCT130 SCT180
     FM011800 VRB04KT P6SM VCSH FEW090 FEW160=



000
FTUS45 KPIH 010500
TAFSUN
TAF
KSUN 010520Z 0106/0206 31006KT P6SM VCSH FEW090 SCT130 SCT200
     FM011600 24006KT P6SM VCTS FEW080CB SCT130
     FM020300 31006KT P6SM FEW090 FEW200
      AMD LTD TO CLD VIS AND WIND TIL 011300=



000
FTUS45 KPIH 010500
TAFIDA
TAF
KIDA 010520Z 0106/0206 36008KT P6SM FEW100 SCT180 SCT250
     FM011600 VRB04KT P6SM VCTS SCT100CB SCT160
     FM020300 04008KT P6SM FEW090 SCT150=



000
FTUS45 KPIH 010300 AAA
TAFPIH
TAF AMD
KPIH 010344Z 0104/0124 34008KT P6SM -SHRA VCTS BKN060CB BKN200
      TEMPO 0104/0105 VRB15G30KT P6SM -TSRA
     FM010600 05010KT P6SM FEW090 SCT120 SCT200
     FM010800 36010KT P6SM FEW080 FEW110 SCT200
     FM011300 VRB04KT P6SM FEW090 SCT140=



000
FTUS45 KPIH 010300 AAB
TAFSUN
TAF AMD
KSUN 010302Z 0103/0124 31006KT P6SM VCSH FEW080 SCT150 SCT200
     FM011600 24006KT P6SM VCTS FEW080CB SCT150
      AMD LTD TO CLD VIS AND WIND 0105/0113=



000
FTUS45 KPIH 010200 AAA
TAFIDA
TAF AMD
KIDA 010255Z 0103/0124 04008KT P6SM FEW100 FEW180 SCT200
     FM010600 36010KT P6SM FEW100 SCT180 SCT200
     FM011200 VRB04KT P6SM FEW100 SCT150 SCT180
     FM011600 VRB04KT P6SM VCTS SCT100CB SCT160=



000
FTUS45 KPIH 010200 AAA
TAFPIH
TAF AMD
KPIH 010254Z 0103/0124 34008KT P6SM FEW060 SCT200
     FM010400 05010KT P6SM FEW090 SCT120 SCT200
     FM010700 36010KT P6SM FEW080 FEW110 SCT200
     FM011300 VRB04KT P6SM FEW090 SCT140=



000
FTUS45 KPIH 010200 AAA
TAFSUN
TAF AMD
KSUN 010207Z 0102/0124 32008KT P6SM TS FEW090CB SCT130 SCT200
     FM010500 31006KT P6SM VCSH FEW080 SCT150 SCT200
     FM011600 24006KT P6SM VCTS FEW080CB SCT150
      AMD LTD TO CLD VIS AND WIND 0105/0113=



000
FTUS45 KPIH 312300
TAFSUN
TAF
KSUN 312320Z 0100/0124 32008KT P6SM -SHRA FEW090 SCT130 SCT200
     FM010500 31006KT P6SM VCSH FEW080 SCT150 SCT200
     FM011600 24006KT P6SM VCTS FEW080CB SCT150
      AMD LTD TO CLD VIS AND WIND 0105/0113=



000
FTUS45 KPIH 312300
TAFIDA
TAF
KIDA 312320Z 0100/0124 36008KT P6SM VCTS FEW090CB FEW160 SCT200
     FM010200 04015KT P6SM FEW100 FEW180 SCT200
     FM010600 36010KT P6SM FEW100 SCT180 SCT200
     FM011200 VRB04KT P6SM FEW100 SCT150 SCT180
     FM011600 VRB04KT P6SM VCTS SCT100CB SCT160=



000
FTUS45 KPIH 312300
TAFBYI
TAF
KBYI 312320Z 0100/0124 05010KT P6SM FEW060 FEW140 SCT200
     FM010200 19008KT P6SM FEW070 FEW140 SCT180
     FM010400 VRB04KT P6SM FEW080 SCT140 SCT180
     FM011800 VRB04KT P6SM VCSH FEW090 SCT160=



000
FTUS45 KPIH 312300
TAFPIH
TAF
KPIH 312320Z 0100/0124 34015KT P6SM FEW060 SCT200
     FM010400 05010KT P6SM FEW090 SCT120 SCT200
     FM010700 36010KT P6SM FEW080 FEW110 SCT200
     FM011300 VRB04KT P6SM FEW090 SCT140=



000
FTUS45 KPIH 312100 AAA
TAFSUN
TAF AMD
KSUN 312118Z 3121/0118 14006KT P6SM VCTS SCT070CB
      TEMPO 3121/3122 VRB15G25KT P6SM -TSRA BKN070CB
     FM010300 32009KT P6SM VCTS FEW070 BKN150CB=



000
FTUS45 KPIH 311900 AAA
TAFIDA
TAF AMD
KIDA 311920Z 3119/0118 VRB05KT P6SM VCTS SCT080 SCT120CB
     FM010300 VRB05KT P6SM VCTS FEW100 SCT150CB=



000
FTUS45 KPIH 311900 AAA
TAFPIH
TAF AMD
KPIH 311919Z 3119/0118 05010KT P6SM VCTS SCT080CB
     FM010300 VRB05KT P6SM VCTS FEW100 SCT150CB=



000
FTUS45 KPIH 311700
TAFBYI
TAF
KBYI 311720Z 3118/0118 07010KT P6SM SCT150
     FM312000 06006KT P6SM VCTS SCT080CB
     FM010300 VRB05KT P6SM VCTS FEW100 SCT150CB=



000
FTUS45 KPIH 311700
TAFSUN
TAF
KSUN 311720Z 3118/0118 VRB06KT P6SM VCTS FEW070 SCT150CB
     FM311900 14006KT P6SM VCTS SCT070CB
     FM010300 32009KT P6SM VCTS FEW070 BKN150CB=



000
FTUS45 KPIH 311700
TAFPIH
TAF
KPIH 311720Z 3118/0118 VRB05KT P6SM SCT150
     FM312000 VRB05KT P6SM VCTS SCT080CB
     FM010300 VRB05KT P6SM VCTS FEW100 SCT150CB=



000
FTUS45 KPIH 311700
TAFIDA
TAF
KIDA 311720Z 3118/0118 VRB05KT P6SM FEW150
     FM312000 VRB05KT P6SM VCTS SCT080CB
     FM010300 VRB05KT P6SM VCTS FEW100 SCT150CB=



000
FTUS45 KPIH 311100
TAFPIH
TAF
KPIH 311120Z 3112/0112 VRB05KT P6SM FEW200
     FM312000 VRB05KT P6SM VCTS SCT080CB
     FM010300 VRB05KT P6SM SCT150=



000
FTUS45 KPIH 311100
TAFIDA
TAF
KIDA 311120Z 3112/0112 VRB05KT P6SM FEW200
     FM312000 VRB05KT P6SM VCTS SCT080CB
     FM010300 VRB05KT P6SM SCT150=



000
FTUS45 KPIH 311100
TAFSUN
TAF
KSUN 311120Z 3112/0112 31010KT P6SM SCT200
     FM311800 14006KT P6SM VCTS SCT070CB
     FM010300 32009KT P6SM SCT150
      AMD LTD TO CLD VIS AND WIND TIL 311300=



000
FTUS45 KPIH 311100
TAFBYI
TAF
KBYI 311120Z 3112/0112 VRB05KT P6SM FEW200
     FM312000 VRB05KT P6SM VCTS SCT080CB
     FM010300 VRB05KT P6SM SCT150=



000
FTUS45 KPIH 310500
TAFBYI
TAF
KBYI 310520Z 3106/0106 VRB04KT P6SM FEW060 SCT120
     FM311500 07010KT P6SM FEW050 SCT120
     FM312100 07008KT P6SM VCTS FEW060CB FEW120 SCT250
     FM010100 07006KT P6SM SCT090=



000
FTUS45 KPIH 310500
TAFIDA
TAF
KIDA 310520Z 3106/0106 04006KT P6SM FEW070 SCT120 SCT180
     FM311900 36010KT P6SM VCTS SCT090CB SCT140 BKN200
     FM010200 03006KT P6SM SCT140 SCT200=



000
FTUS45 KPIH 310500
TAFPIH
TAF
KPIH 310520Z 3106/0106 06006KT P6SM FEW100 SCT160
     FM312100 05010KT P6SM VCSH FEW070 FEW120=



000
FTUS45 KPIH 310500
TAFSUN
TAF
KSUN 310520Z 3106/0106 31008KT P6SM SCT080 BKN120
     FM311200 31006KT P6SM BKN090
     FM311800 14006KT P6SM VCTS SCT070CB
     FM010300 32006KT P6SM SCT080 BKN130 BKN200
      AMD LTD TO CLD VIS AND WIND TIL 311300=



000
FTUS45 KPIH 310000 AAA
TAFBYI
TAF AMD
KBYI 310005Z 3100/3124 02006KT P6SM VCTS FEW050CB FEW110 SCT140
      TEMPO 3100/3102 VRB20G40KT P6SM -TSRA BKN050CB OVC110
     FM310200 35015G25KT P6SM VCSH FEW060 SCT140
     FM310400 VRB04KT P6SM FEW080 SCT140
     FM312100 07008KT P6SM VCTS FEW080CB SCT250=



000
FTUS45 KPIH 302300
TAFSUN
TAF
KSUN 302320Z 3100/3124 15006KT P6SM -SHRA SCT100 BKN140 BKN180
     FM310200 31007KT P6SM SCT090 BKN120
     FM310900 31006KT P6SM BKN090
     FM311800 14006KT P6SM VCTS SCT080CB
      AMD LTD TO CLD VIS AND WIND 3105/3113=



000
FTUS45 KPIH 302300
TAFBYI
TAF
KBYI 302320Z 3100/3124 02006KT P6SM VCTS FEW050CB FEW110 SCT140
     FM310100 35015G25KT P6SM VCSH FEW060 SCT140
     FM310300 VRB04KT P6SM FEW080 SCT140
     FM312100 07008KT P6SM VCTS FEW080CB SCT250=



000
FTUS45 KPIH 302300
TAFIDA
TAF
KIDA 302320Z 3100/3124 18008KT P6SM FEW070 SCT120 SCT180
     FM310400 05010KT P6SM FEW120 SCT180
     FM310600 VRB04KT P6SM FEW080 SCT160
     FM312000 03008KT P6SM VCTS FEW060CB SCT140=



000
FTUS45 KPIH 302300
TAFPIH
TAF
KPIH 302320Z 3100/3124 18006KT P6SM VCTS FEW060CB SCT160
     FM310100 15010KT P6SM VCSH FEW070 FEW110 SCT160
     FM310400 VRB04KT P6SM FEW120 SCT160
     FM312100 04010KT P6SM VCSH FEW060 FEW130=



000
FTUS45 KPIH 302100 AAA
TAFSUN
TAF AMD
KSUN 302114Z 3021/3118 15006KT P6SM VCTS SCT080CB BKN120
      TEMPO 3021/3022 VRB20G40KT P6SM -TSRA BKN060CB OVC120
     FM310300 31007KT P6SM FEW080 SCT120=



000
FTUS45 KPIH 301700
TAFPIH
TAF
KPIH 301720Z 3018/3118 VRB05KT P6SM FEW200
     FM301900 VRB06KT P6SM VCTS SCT080CB BKN120
     FM310400 VRB05KT P6SM FEW080 SCT150=



000
FTUS45 KPIH 301700
TAFBYI
TAF
KBYI 301720Z 3018/3118 VRB05KT P6SM SCT200
     FM301900 VRB05KT P6SM VCTS SCT080CB BKN120
     FM310400 VRB05KT P6SM FEW080 SCT150=



000
FTUS45 KPIH 301700
TAFSUN
TAF
KSUN 301720Z 3018/3118 15006KT P6SM VCTS SCT080CB BKN120
     FM310300 31007KT P6SM FEW080 SCT120=



000
FTUS45 KPIH 301700
TAFIDA
TAF
KIDA 301720Z 3018/3118 VRB05KT P6SM SCT200
     FM301900 VRB06KT P6SM VCTS SCT080CB BKN120
     FM310400 VRB05KT P6SM FEW080 SCT150=



000
FTUS45 KPIH 301100
TAFSUN
TAF
KSUN 301120Z 3012/3112 31007KT P6SM BKN200
     FM301800 16006KT P6SM VCTS SCT080CB BKN120
     FM310400 31007KT P6SM FEW080 SCT120
      AMD LTD TO CLD VIS AND WIND TIL 301300=



000
FTUS45 KPIH 301100
TAFBYI
TAF
KBYI 301120Z 3012/3112 VRB05KT P6SM SCT200
     FM301800 VRB05KT P6SM VCTS SCT080CB BKN150
     FM310400 VRB05KT P6SM FEW080 SCT150=



000
FTUS45 KPIH 301100
TAFPIH
TAF
KPIH 301120Z 3012/3112 VRB05KT P6SM SCT200
     FM301800 VRB06KT P6SM VCTS SCT080CB BKN150
     FM310400 VRB05KT P6SM FEW080 SCT150=



000
FTUS45 KPIH 301100
TAFIDA
TAF
KIDA 301120Z 3012/3112 36005KT P6SM SCT200
     FM301800 VRB05KT P6SM VCTS SCT080CB BKN150
     FM310400 VRB05KT P6SM FEW080 SCT150=



000
FTUS45 KPIH 300500
TAFPIH
TAF
KPIH 300520Z 3006/3106 04006KT P6SM SCT100 SCT160 BKN200
     FM301800 31008KT P6SM VCTS SCT070CB BKN180
     FM310300 VRB04KT P6SM FEW090 SCT160=



000
FTUS45 KPIH 300500
TAFIDA
TAF
KIDA 300520Z 3006/3106 01006KT P6SM BKN100 BKN160 OVC200
     FM301100 35006KT P6SM FEW005 SCT090 SCT200
     FM301900 32008KT P6SM VCTS SCT090CB BKN180
     FM310300 VRB04KT P6SM FEW090 BKN160=



000
FTUS45 KPIH 300500
TAFSUN
TAF
KSUN 300520Z 3006/3106 31006KT P6SM VCSH BKN100 OVC150
     FM301100 VRB04KT P6SM BKN110 BKN200
     FM301800 16006KT P6SM -SHRA VCTS FEW060CB BKN130
     FM302100 31006KT P6SM VCTS FEW060CB BKN130 BKN180
     FM310200 31006KT P6SM SCT120
      AMD LTD TO CLD VIS AND WIND 3005/3013=



000
FTUS45 KPIH 300500
TAFBYI
TAF
KBYI 300520Z 3006/3106 33006KT P6SM FEW090 SCT160 SCT200
     FM301600 07008KT P6SM VCSH FEW060 SCT090 SCT130
     FM302000 07010KT P6SM VCTS FEW060CB SCT140 BKN200
     FM310300 08010KT P6SM SCT130=



000
FTUS45 KPIH 300200 AAA
TAFBYI
TAF AMD
KBYI 300249Z 3003/3024 07008KT P6SM VCSH SCT060 BKN160 BKN250
      TEMPO 3003/3005 VRB20G45KT P6SM -SHRA BKN060 OVC160
     FM300600 VRB05KT P6SM FEW050 SCT160
     FM301500 07008KT P6SM VCSH FEW040 SCT100 BKN160
     FM302100 35010KT P6SM VCTS FEW060CB SCT130 BKN180=



000
FTUS45 KPIH 292300 AAA
TAFSUN
TAF AMD
KSUN 292356Z 3000/3024 14008KT P6SM VCTS SCT090CB BKN110 BKN180
      TEMPO 3000/3001 VRB10G20KT P6SM -TSRA BKN090CB OVC110
     FM300300 VRB05KT P6SM VCSH BKN100 OVC130
     FM301300 VRB05KT P6SM SCT090 BKN130
     FM301600 VRB05KT P6SM -SHRA VCTS FEW060CB SCT130 BKN200
     FM302100 31008KT P6SM VCTS FEW050CB BKN130 BKN200
      AMD LTD TO CLD VIS AND WIND 3005/3013=



000
FTUS45 KPIH 292300
TAFIDA
TAF
KIDA 292320Z 3000/3024 35006KT P6SM VCSH FEW080 BKN160
     FM300300 VRB05KT P6SM FEW050 SCT180
     FM301800 VRB04KT P6SM VCTS SCT070CB SCT180=



000
FTUS45 KPIH 292300
TAFSUN
TAF
KSUN 292320Z 3000/3024 14008KT P6SM VCTS SCT090CB BKN110 BKN180
     FM300300 VRB05KT P6SM VCSH BKN100 OVC130
     FM301300 VRB05KT P6SM SCT090 BKN130
     FM301600 VRB05KT P6SM -SHRA VCTS FEW060CB SCT130 BKN200
     FM302100 31008KT P6SM VCTS FEW050CB BKN130 BKN200
      AMD LTD TO CLD VIS AND WIND 3005/3013=



000
FTUS45 KPIH 292300
TAFBYI
TAF
KBYI 292320Z 3000/3024 07010KT P6SM VCTS BKN060CB BKN160 OVC250
     FM300200 07008KT P6SM VCSH SCT060 BKN160 BKN250
     FM300600 VRB05KT P6SM FEW050 SCT160
     FM301500 07008KT P6SM VCSH FEW040 SCT100 BKN160
     FM302100 35010KT P6SM VCTS FEW060CB SCT130 BKN180=



000
FTUS45 KPIH 292300
TAFPIH
TAF
KPIH 292320Z 3000/3024 01010KT P6SM SCT070 SCT160 BKN200
     FM300300 VRB05KT P6SM VCSH FEW060 BKN180
     FM301800 VRB05KT P6SM VCTS FEW070CB SCT160=



000
FTUS45 KPIH 292100 AAA
TAFSUN
TAF AMD
KSUN 292141Z 2922/3018 VRB05KT P6SM -SHRA VCTS FEW050CB SCT090
      BKN150
      TEMPO 2922/2924 VRB15G25KT P6SM -TSRA BKN050CB OVC090
     FM300400 31007KT P6SM BKN120
     FM301700 15007KT P6SM BKN100=



000
FTUS45 KPIH 291700
TAFSUN
TAF
KSUN 291720Z 2918/3018 14007KT P6SM VCTS SCT070CB BKN120
     FM300400 31007KT P6SM BKN120
     FM301700 15007KT P6SM BKN100=



000
FTUS45 KPIH 291700
TAFPIH
TAF
KPIH 291720Z 2918/3018 VRB06KT P6SM VCTS BKN080CB BKN100
     FM300400 VRB05KT P6SM BKN120=



000
FTUS45 KPIH 291700
TAFIDA
TAF
KIDA 291720Z 2918/3018 VRB06KT P6SM VCTS SCT080CB BKN100
     FM300400 VRB05KT P6SM BKN120=



000
FTUS45 KPIH 291700
TAFBYI
TAF
KBYI 291720Z 2918/3018 VRB05KT P6SM VCTS SCT080CB BKN100
     FM300400 VRB05KT P6SM BKN120=



000
FTUS45 KPIH 291600 AAA
TAFPIH
TAF AMD
KPIH 291605Z 2916/3012 VRB05KT P6SM -RA OVC080
     FM291800 VRB06KT P6SM VCTS SCT080CB BKN140
     FM300400 VRB05KT P6SM BKN120=



000
FTUS45 KPIH 291100
TAFPIH
TAF
KPIH 291120Z 2912/3012 VRB05KT P6SM BKN120
     FM291800 VRB06KT P6SM VCTS SCT080CB BKN140
     FM300400 VRB05KT P6SM BKN120=



000
FTUS45 KPIH 291100
TAFIDA
TAF
KIDA 291120Z 2912/3012 VRB05KT P6SM BKN120
     FM291800 VRB05KT P6SM VCTS SCT080CB BKN140
     FM300400 VRB05KT P6SM BKN120=



000
FTUS45 KPIH 291100
TAFSUN
TAF
KSUN 291120Z 2912/3012 30007KT P6SM BKN150
     FM291700 16007KT P6SM VCTS SCT070CB BKN120
     FM300400 31007KT P6SM BKN120
      AMD LTD TO CLD VIS AND WIND TIL 291300=



000
FTUS45 KPIH 291100
TAFBYI
TAF
KBYI 291120Z 2912/3012 VRB05KT P6SM BKN140
     FM291800 VRB05KT P6SM VCTS SCT080CB BKN140
     FM300400 VRB05KT P6SM BKN120=



    US Dept of Commerce
    National Oceanic and Atmospheric Administration
    National Weather Service
    1325 East West Highway
    Silver Spring, MD 20910
    Page Author: NWS Internet Services Team
Disclaimer
Information Quality
Credits
Glossary
Privacy Policy
Freedom of Information Act (FOIA)
About Us
Career Opportunities